createdAt,value
2022-10-23T00:04:44.859Z,3.15
2022-10-23T00:09:47.485Z,3.13
2022-10-23T00:14:50.101Z,3.20
2022-10-23T00:19:54.148Z,3.28
2022-10-23T00:24:56.759Z,3.58
2022-10-23T00:29:59.391Z,2.92
2022-10-23T00:35:03.495Z,2.83
2022-10-23T00:40:07.452Z,2.97
2022-10-23T00:45:22.940Z,3.45
2022-10-23T00:50:28.568Z,2.80
2022-10-23T00:55:33.796Z,2.90
2022-10-23T01:00:44.599Z,3.00
2022-10-23T01:05:50.959Z,2.72
2022-10-23T01:10:57.320Z,2.80
2022-10-23T01:16:08.522Z,2.70
2022-10-23T01:21:15.247Z,3.13
2022-10-23T01:26:30.440Z,2.50
2022-10-23T01:31:37.824Z,2.42
2022-10-23T01:36:43.087Z,2.55
2022-10-23T01:41:48.230Z,2.60
2022-10-23T01:46:58.975Z,2.40
2022-10-23T01:52:08.123Z,2.40
2022-10-23T01:57:14.245Z,2.40
2022-10-23T02:02:19.107Z,2.53
2022-10-23T02:07:22.516Z,2.30
2022-10-23T02:12:31.414Z,2.72
2022-10-23T02:17:44.888Z,2.90
2022-10-23T02:22:55.376Z,2.60
2022-10-23T02:27:59.497Z,2.47
2022-10-23T02:33:11.769Z,2.75
2022-10-23T02:38:36.215Z,2.33
2022-10-23T02:43:43.051Z,2.40
2022-10-23T02:48:54.914Z,2.35
2022-10-23T02:54:02.259Z,2.53
2022-10-23T02:59:12.085Z,2.33
2022-10-23T03:04:17.631Z,2.33
2022-10-23T03:09:20.389Z,2.00
2022-10-23T03:14:23.067Z,2.35
2022-10-23T03:19:27.768Z,2.20
2022-10-23T03:24:32.249Z,2.22
2022-10-23T03:29:34.964Z,2.40
2022-10-23T03:34:39.086Z,1.92
2022-10-23T03:39:45.175Z,2.10
2022-10-23T03:44:47.918Z,2.50
2022-10-23T03:49:51.942Z,2.10
2022-10-23T03:54:54.678Z,2.08
2022-10-23T03:59:57.414Z,2.28
2022-10-23T04:05:07.714Z,2.10
2022-10-23T04:10:11.016Z,2.03
2022-10-23T04:15:13.725Z,2.00
2022-10-23T04:20:20.754Z,2.20
2022-10-23T04:25:23.568Z,2.00
2022-10-23T04:30:26.310Z,2.28
2022-10-23T04:35:30.367Z,2.30
2022-10-23T04:40:33.069Z,2.20
2022-10-23T04:45:35.862Z,2.00
2022-10-23T04:50:39.905Z,2.10
2022-10-23T04:56:03.719Z,4.50
2022-10-23T05:01:13.296Z,142.65
2022-10-23T05:06:17.460Z,157.93
2022-10-23T05:11:40.451Z,191.13
2022-10-23T05:16:48.195Z,200.75
2022-10-23T05:21:55.750Z,234.95
2022-10-23T05:27:02.123Z,249.70
2022-10-23T05:32:08.035Z,252.05
2022-10-23T05:37:14.987Z,228.88
2022-10-23T05:42:18.263Z,243.98
2022-10-23T05:47:21.943Z,253.23
2022-10-23T05:52:49.027Z,239.07
2022-10-23T05:58:11.966Z,197.68
2022-10-23T06:03:35.055Z,207.38
2022-10-23T06:08:41.759Z,206.32
2022-10-23T06:13:45.184Z,186.32
2022-10-23T06:18:57.400Z,206.63
2022-10-23T06:24:01.531Z,200.45
2022-10-23T06:29:30.759Z,182.98
2022-10-23T06:34:33.575Z,176.50
2022-10-23T06:39:40.356Z,172.32
2022-10-23T06:44:48.878Z,144.02
2022-10-23T06:49:59.890Z,159.50
2022-10-23T06:55:04.279Z,156.93
2022-10-23T07:00:12.225Z,157.25
2022-10-23T07:05:24.383Z,143.90
2022-10-23T07:10:28.754Z,124.90
2022-10-23T07:15:33.703Z,121.93
2022-10-23T07:20:36.778Z,130.90
2022-10-23T07:25:41.267Z,125.78
2022-10-23T07:30:44.963Z,118.82
2022-10-23T07:35:49.954Z,125.47
2022-10-23T07:41:02.314Z,121.13
2022-10-23T07:46:05.441Z,103.93
2022-10-23T17:31:46.336Z,6.05
2022-10-23T17:36:51.563Z,6.28
2022-10-23T17:41:54.815Z,5.22
2022-10-23T17:46:58.834Z,5.65
2022-10-23T17:52:01.810Z,9.23
2022-10-23T17:57:04.438Z,11.18
2022-10-23T18:02:08.543Z,9.82
2022-10-23T18:07:11.569Z,9.98
2022-10-23T18:12:14.167Z,10.07
2022-10-23T18:17:18.139Z,9.10
2022-10-23T18:22:20.831Z,9.20
2022-10-23T18:27:23.580Z,9.00
2022-10-23T18:32:27.837Z,9.00
2022-10-23T18:37:33.885Z,9.38
2022-10-23T18:42:38.573Z,8.02
2022-10-23T18:47:42.854Z,8.50
2022-10-23T18:52:45.995Z,7.80
2022-10-23T18:57:48.619Z,7.53
2022-10-23T19:02:52.830Z,7.10
2022-10-23T19:07:55.663Z,6.90
2022-10-23T19:12:58.265Z,8.05
2022-10-23T19:18:02.650Z,7.40
2022-10-23T19:23:06.456Z,7.60
2022-10-23T19:28:10.096Z,7.05
2022-10-23T19:33:14.036Z,6.78
2022-10-23T19:38:16.686Z,6.15
2022-10-23T19:43:19.356Z,6.47
2022-10-23T19:48:23.281Z,6.80
2022-10-23T19:53:26.068Z,6.07
2022-10-23T19:58:28.688Z,5.90
2022-10-23T20:03:32.654Z,5.88
2022-10-23T20:08:35.360Z,5.63
2022-10-23T20:13:38.001Z,6.40
2022-10-23T20:18:41.925Z,6.35
2022-10-23T20:23:45.212Z,6.10
2022-10-23T20:28:48.444Z,5.95
2022-10-23T20:33:52.946Z,5.30
2022-10-23T20:38:56.619Z,5.63
2022-10-23T20:43:59.263Z,5.60
2022-10-23T20:49:03.288Z,6.00
2022-10-23T20:54:06.187Z,5.10
2022-10-23T20:59:11.796Z,5.57
2022-10-23T21:04:15.977Z,4.97
2022-10-23T21:09:18.594Z,5.68
2022-10-23T21:14:21.168Z,5.45
2022-10-23T21:19:25.118Z,5.50
2022-10-23T21:24:27.835Z,5.20
2022-10-23T21:29:30.556Z,5.18
2022-10-23T21:34:34.716Z,4.85
2022-10-23T21:39:37.360Z,4.70
2022-10-23T21:44:40.157Z,4.95
2022-10-23T21:49:44.349Z,4.35
2022-10-23T21:54:46.916Z,4.30
2022-10-23T21:59:49.726Z,4.90
2022-10-23T22:04:54.252Z,4.30
2022-10-23T22:09:56.870Z,4.93
2022-10-23T22:14:59.473Z,4.63
2022-10-23T22:20:03.395Z,4.57
2022-10-23T22:25:07.027Z,4.47
2022-10-23T22:30:10.267Z,4.50
2022-10-23T22:35:14.262Z,4.20
2022-10-23T22:40:16.975Z,4.20
2022-10-23T22:45:19.584Z,4.55
2022-10-23T22:50:23.611Z,4.53
2022-10-23T22:55:26.229Z,3.90
2022-10-23T23:00:28.812Z,4.38
2022-10-23T23:05:32.871Z,4.03
2022-10-23T23:10:35.488Z,3.75
2022-10-23T23:15:40.702Z,4.30
2022-10-23T23:20:44.742Z,3.90
2022-10-23T23:25:49.331Z,3.88
2022-10-23T23:31:03.253Z,4.28
2022-10-23T23:36:10.031Z,4.05
2022-10-23T23:41:13.587Z,4.10
2022-10-23T23:46:16.681Z,3.70
2022-10-23T23:51:25.135Z,4.00
2022-10-23T23:56:28.005Z,3.80
